createdAt,value
2019-05-02T00:01:28.083Z,61.20
2019-05-02T00:03:58.651Z,64.50
2019-05-02T00:06:28.440Z,64.43
2019-05-02T00:08:57.907Z,63.00
2019-05-02T00:11:29.088Z,69.83
2019-05-02T00:13:58.835Z,63.80
2019-05-02T00:16:29.769Z,63.27
2019-05-02T00:18:59.204Z,59.13
2019-05-02T00:21:32.928Z,67.17
2019-05-02T00:24:03.050Z,67.87
2019-05-02T00:26:31.233Z,66.17
2019-05-02T00:29:00.637Z,67.10
2019-05-02T00:31:30.063Z,70.60
2019-05-02T00:33:59.522Z,69.80
2019-05-02T00:36:28.898Z,66.20
2019-05-02T00:38:58.356Z,65.93
2019-05-02T00:41:27.681Z,66.00
2019-05-02T00:43:57.132Z,69.83
2019-05-02T00:46:30.271Z,64.67
2019-05-02T00:49:01.794Z,65.53
2019-05-02T00:51:30.645Z,70.10
2019-05-02T00:54:00.111Z,64.73
2019-05-02T00:56:29.584Z,64.97
2019-05-02T00:59:02.294Z,68.50
2019-05-02T01:02:05.329Z,66.97
2019-05-02T01:04:37.299Z,67.53
2019-05-02T01:07:07.508Z,74.83
2019-05-02T01:09:36.856Z,71.70
2019-05-02T01:12:08.466Z,66.80
2019-05-02T01:14:37.498Z,68.80
2019-05-02T01:17:06.936Z,69.80
2019-05-02T01:19:36.188Z,67.53
2019-05-02T01:22:10.642Z,66.77
2019-05-02T01:24:41.494Z,68.73
2019-05-02T01:27:17.562Z,66.57
2019-05-02T01:30:08.558Z,74.07
2019-05-02T01:32:47.582Z,77.47
2019-05-02T01:35:38.696Z,69.27
2019-05-02T01:38:15.916Z,65.07
2019-05-02T01:40:48.173Z,70.93
2019-05-02T01:43:36.316Z,80.03
2019-05-02T01:46:05.897Z,73.60
2019-05-02T01:48:35.349Z,76.03
2019-05-02T01:51:10.466Z,71.07
2019-05-02T01:53:36.120Z,65.23
2019-05-02T01:56:05.709Z,65.63
2019-05-02T01:58:35.222Z,65.67
2019-05-02T02:01:05.603Z,68.23
2019-05-02T02:03:35.292Z,69.77
2019-05-02T02:06:08.134Z,73.97
2019-05-02T02:08:35.959Z,69.77
2019-05-02T02:11:05.326Z,67.87
2019-05-02T02:13:36.515Z,74.53
2019-05-02T02:16:06.145Z,70.97
2019-05-02T02:18:39.435Z,71.23
2019-05-02T02:21:43.163Z,68.10
2019-05-02T02:24:34.944Z,73.57
2019-05-02T02:27:04.450Z,73.97
2019-05-02T02:29:33.873Z,66.53
2019-05-02T02:32:03.431Z,76.97
2019-05-02T02:34:32.726Z,75.03
2019-05-02T02:37:05.296Z,79.90
2019-05-02T02:39:33.260Z,72.60
2019-05-02T02:42:02.702Z,77.00
2019-05-02T02:44:59.993Z,78.43
2019-05-02T02:47:29.623Z,79.07
2019-05-02T02:50:02.286Z,77.93
2019-05-02T02:52:30.265Z,75.13
2019-05-02T02:54:59.711Z,70.60
2019-05-02T02:57:29.268Z,70.57
2019-05-02T03:00:06.715Z,67.47
2019-05-02T03:02:29.886Z,71.03
2019-05-02T03:04:59.360Z,80.23
2019-05-02T03:07:29.084Z,87.90
2019-05-02T03:09:59.725Z,102.33
2019-05-02T03:13:00.870Z,116.67
2019-05-02T03:15:32.554Z,92.70
2019-05-02T03:18:02.132Z,93.93
2019-05-02T03:20:39.880Z,87.70
2019-05-02T03:23:03.416Z,83.63
2019-05-02T03:25:49.824Z,87.77
2019-05-02T03:28:04.142Z,92.30
2019-05-02T03:30:37.406Z,100.67
2019-05-02T03:33:10.929Z,110.03
2019-05-02T03:35:43.079Z,132.20
2019-05-02T03:38:07.213Z,112.57
2019-05-02T03:40:38.924Z,106.87
2019-05-02T03:43:08.165Z,106.43
2019-05-02T03:45:40.063Z,102.60
2019-05-02T03:48:08.521Z,97.53
2019-05-02T03:50:38.448Z,107.43
2019-05-02T03:53:07.751Z,92.57
2019-05-02T03:55:37.212Z,105.80
2019-05-02T03:58:13.301Z,112.87
2019-05-02T04:00:37.746Z,121.03
2019-05-02T04:03:07.317Z,130.90
2019-05-02T04:05:40.521Z,104.93
2019-05-02T04:08:19.962Z,99.97
2019-05-02T04:11:23.288Z,136.07
2019-05-02T04:13:54.317Z,110.30
2019-05-02T04:16:25.945Z,73.90
2019-05-02T04:18:58.403Z,79.07
2019-05-02T04:21:27.984Z,95.93
2019-05-02T04:24:06.745Z,79.37
2019-05-02T04:26:29.274Z,134.07
2019-05-02T04:28:58.826Z,117.77
2019-05-02T04:31:31.389Z,79.23
2019-05-02T04:33:59.173Z,96.50
2019-05-02T04:36:28.511Z,92.43
2019-05-02T04:38:59.529Z,85.87
2019-05-02T04:41:31.723Z,131.00
2019-05-02T04:44:01.508Z,169.47
2019-05-02T04:46:31.485Z,135.13
2019-05-02T04:49:01.013Z,146.27
2019-05-02T04:51:31.911Z,135.27
2019-05-02T04:54:01.887Z,165.00
2019-05-02T04:56:31.794Z,201.57
2019-05-02T04:59:02.266Z,156.37
2019-05-02T05:01:41.933Z,128.73
2019-05-02T05:04:03.501Z,129.13
2019-05-02T05:06:32.850Z,125.90
2019-05-02T05:09:03.961Z,95.83
2019-05-02T05:11:33.269Z,84.60
2019-05-02T05:14:02.556Z,73.57
2019-05-02T05:16:31.907Z,75.73
2019-05-02T05:19:01.173Z,70.63
2019-05-02T05:21:30.557Z,71.00
2019-05-02T05:24:18.794Z,64.60
2019-05-02T05:26:51.280Z,66.77
2019-05-02T05:29:23.315Z,63.43
2019-05-02T05:31:55.069Z,64.00
2019-05-02T05:34:27.451Z,67.33
2019-05-02T05:36:53.854Z,76.60
2019-05-02T05:39:23.138Z,90.83
2019-05-02T05:41:52.555Z,110.50
2019-05-02T05:44:23.291Z,136.03
2019-05-02T05:46:53.053Z,135.23
2019-05-02T05:49:22.429Z,132.80
2019-05-02T05:51:54.380Z,130.50
2019-05-02T05:54:22.746Z,134.93
2019-05-02T05:56:52.446Z,134.13
2019-05-02T05:59:27.293Z,137.37
2019-05-02T06:01:53.328Z,139.07
2019-05-02T06:04:24.040Z,139.07
2019-05-02T06:06:58.796Z,131.70
2019-05-02T06:09:26.377Z,129.90
2019-05-02T06:11:56.680Z,130.67
2019-05-02T06:14:26.489Z,127.90
2019-05-02T06:16:55.849Z,123.67
2019-05-02T06:19:25.355Z,119.37
2019-05-02T06:21:54.748Z,128.80
2019-05-02T06:24:24.134Z,117.37
2019-05-02T06:26:53.623Z,115.80
2019-05-02T06:29:23.170Z,113.87
2019-05-02T06:31:52.574Z,108.60
2019-05-02T06:34:22.104Z,107.63
2019-05-02T06:36:51.565Z,108.47
2019-05-02T06:39:21.076Z,108.03
2019-05-02T06:41:51.983Z,103.60
2019-05-02T06:44:24.181Z,107.37
2019-05-02T06:46:52.702Z,105.77
2019-05-02T06:49:24.179Z,98.53
2019-05-02T06:51:56.192Z,117.77
2019-05-02T06:54:24.431Z,116.60
2019-05-02T06:56:53.874Z,107.50
2019-05-02T06:59:23.340Z,101.37
2019-05-02T07:01:57.362Z,101.10
2019-05-02T07:04:25.063Z,92.60
2019-05-02T07:06:59.453Z,90.43
2019-05-02T07:09:39.481Z,94.80
2019-05-02T07:12:01.245Z,89.33
2019-05-02T07:14:28.314Z,86.80
2019-05-02T07:17:11.163Z,92.57
2019-05-02T07:19:44.089Z,90.33
2019-05-02T07:22:13.403Z,85.47
2019-05-02T07:24:42.770Z,85.43
2019-05-02T07:27:12.483Z,86.93
2019-05-02T07:29:41.773Z,82.57
2019-05-02T07:32:11.453Z,91.43
2019-05-02T07:34:44.328Z,95.67
2019-05-02T07:37:12.679Z,85.50
2019-05-02T07:39:43.529Z,82.97
2019-05-02T07:42:12.899Z,80.53
2019-05-02T07:44:42.343Z,81.13
2019-05-02T07:47:11.687Z,77.90
2019-05-02T07:49:41.091Z,83.60
2019-05-02T07:52:10.592Z,81.77
2019-05-02T07:54:39.982Z,85.90
2019-05-02T07:57:09.397Z,86.23
2019-05-02T07:59:38.760Z,83.50
2019-05-02T08:02:08.372Z,79.53
2019-05-02T08:04:37.701Z,72.40
2019-05-02T08:07:07.451Z,78.23
2019-05-02T08:09:39.256Z,80.80
2019-05-02T08:12:08.305Z,78.97
2019-05-02T08:14:37.703Z,75.53
2019-05-02T08:17:16.320Z,77.63
2019-05-02T08:19:41.785Z,70.00
2019-05-02T08:22:13.825Z,71.13
2019-05-02T08:24:40.511Z,72.30
2019-05-02T08:27:34.760Z,71.30
2019-05-02T08:30:04.238Z,71.63
2019-05-02T08:32:33.795Z,70.80
2019-05-02T08:35:03.059Z,68.73
2019-05-02T08:37:35.307Z,71.33
2019-05-02T08:40:05.391Z,69.17
2019-05-02T08:42:34.824Z,66.67
2019-05-02T08:45:04.666Z,65.97
2019-05-02T08:47:34.114Z,65.33
2019-05-02T08:50:03.521Z,67.90
2019-05-02T08:52:36.880Z,64.50
2019-05-02T08:55:09.004Z,63.70
2019-05-02T08:57:36.310Z,64.70
2019-05-02T09:00:07.071Z,68.07
2019-05-02T09:02:41.408Z,61.97
2019-05-02T09:05:08.203Z,63.57
2019-05-02T09:07:40.050Z,59.90
2019-05-02T09:10:09.077Z,60.95
2019-05-02T09:12:42.236Z,63.10
2019-05-02T09:15:11.838Z,65.70
2019-05-02T09:17:46.115Z,58.03
2019-05-02T09:20:17.848Z,61.92
2019-05-02T09:22:46.499Z,59.97
2019-05-02T09:25:15.271Z,61.83
2019-05-02T09:27:44.713Z,64.53
2019-05-02T09:30:17.138Z,61.60
2019-05-02T09:32:45.506Z,59.17
2019-05-02T09:35:14.909Z,56.93
2019-05-02T09:37:44.229Z,57.47
2019-05-02T09:40:16.739Z,57.50
2019-05-02T09:42:47.496Z,54.13
2019-05-02T09:45:27.856Z,55.10
2019-05-02T09:48:04.006Z,53.87
2019-05-02T09:50:31.197Z,57.27
2019-05-02T09:52:56.786Z,54.80
2019-05-02T09:55:26.255Z,54.53
2019-05-02T09:58:19.483Z,51.70
2019-05-02T10:01:05.681Z,56.83
2019-05-02T10:03:35.135Z,51.43
2019-05-02T10:06:08.302Z,50.17
2019-05-02T10:08:38.345Z,51.87
2019-05-02T10:11:07.032Z,54.37
2019-05-02T10:13:36.376Z,54.93
2019-05-02T10:16:05.771Z,53.87
2019-05-02T10:18:35.287Z,51.57
2019-05-02T10:21:07.829Z,49.57
2019-05-02T10:23:36.325Z,51.57
2019-05-02T10:26:05.848Z,50.80
2019-05-02T10:28:35.182Z,54.20
2019-05-02T10:31:04.729Z,52.87
2019-05-02T10:33:37.562Z,52.60
2019-05-02T10:36:05.435Z,52.80
2019-05-02T10:38:34.802Z,52.20
2019-05-02T10:41:04.921Z,55.67
2019-05-02T10:43:34.159Z,53.13
2019-05-02T10:46:09.903Z,48.00
2019-05-02T10:48:44.425Z,62.10
2019-05-02T10:51:31.642Z,124.00
2019-05-02T10:54:02.272Z,50.30
2019-05-02T10:56:32.434Z,50.95
2019-05-02T10:59:02.326Z,50.08
2019-05-02T11:01:37.315Z,50.70
2019-05-02T11:04:08.704Z,48.03
2019-05-02T11:06:42.702Z,43.13
2019-05-02T11:09:12.102Z,44.60
2019-05-02T11:11:42.487Z,45.90
2019-05-02T11:14:33.741Z,44.00
2019-05-02T11:17:27.837Z,45.10
2019-05-02T11:20:02.836Z,62.03
2019-05-02T11:22:32.334Z,43.80
2019-05-02T11:25:02.149Z,41.95
2019-05-02T11:27:32.899Z,40.48
2019-05-02T11:30:02.803Z,41.30
2019-05-02T11:32:32.754Z,41.83
2019-05-02T11:35:02.969Z,41.03
2019-05-02T11:37:32.934Z,43.70
2019-05-02T11:40:06.151Z,44.13
2019-05-02T11:42:33.342Z,44.23
2019-05-02T11:45:02.859Z,41.88
2019-05-02T11:47:33.716Z,41.63
2019-05-02T11:50:02.972Z,41.23
2019-05-02T11:52:37.178Z,44.00
2019-05-02T11:55:03.368Z,41.53
2019-05-02T11:57:33.178Z,43.83
2019-05-02T12:00:05.093Z,42.17
2019-05-02T12:02:58.098Z,41.50
2019-05-02T12:05:35.403Z,41.03
2019-05-02T12:08:07.754Z,44.53
2019-05-02T12:10:36.627Z,46.30
2019-05-02T12:13:06.603Z,41.77
2019-05-02T12:15:35.364Z,43.03
2019-05-02T12:18:05.225Z,41.83
2019-05-02T12:20:36.724Z,41.47
2019-05-02T12:23:09.017Z,40.50
2019-05-02T12:25:37.113Z,38.93
2019-05-02T12:28:07.027Z,37.43
2019-05-02T12:30:37.855Z,41.13
2019-05-02T12:33:08.104Z,39.30
2019-05-02T12:35:37.622Z,37.97
2019-05-02T12:38:07.024Z,40.83
2019-05-02T12:40:36.513Z,40.33
2019-05-02T12:43:05.991Z,40.40
2019-05-02T12:45:35.374Z,40.20
2019-05-02T12:48:04.815Z,37.23
2019-05-02T12:50:34.147Z,36.07
2019-05-02T12:53:03.491Z,37.50
2019-05-02T12:55:32.779Z,38.73
2019-05-02T12:58:03.136Z,40.10
2019-05-02T13:00:32.741Z,35.50
2019-05-02T13:03:18.221Z,35.40
2019-05-02T13:05:47.725Z,37.20
2019-05-02T13:08:17.060Z,34.90
2019-05-02T13:11:17.414Z,33.23
2019-05-02T13:13:46.910Z,32.53
2019-05-02T13:16:16.345Z,37.23
2019-05-02T13:18:45.701Z,32.47
2019-05-02T13:21:20.750Z,35.00
2019-05-02T13:23:54.632Z,35.40
2019-05-02T13:26:27.094Z,33.60
2019-05-02T13:28:54.977Z,34.00
2019-05-02T13:31:49.078Z,34.33
2019-05-02T13:34:31.942Z,32.43
2019-05-02T13:37:02.912Z,32.10
2019-05-02T13:39:39.342Z,31.67
2019-05-02T13:42:09.630Z,30.83
2019-05-02T13:44:45.485Z,27.13
2019-05-02T13:47:15.412Z,26.52
2019-05-02T13:49:54.107Z,25.02
2019-05-02T13:52:15.927Z,24.75
2019-05-02T13:54:45.473Z,24.65
2019-05-02T13:57:14.855Z,24.85
2019-05-02T13:59:44.212Z,23.02
2019-05-02T14:02:37.327Z,22.45
2019-05-02T14:05:08.693Z,21.87
2019-05-02T14:07:38.789Z,25.60
2019-05-02T14:10:18.788Z,24.35
2019-05-02T14:12:52.828Z,26.82
2019-05-02T14:15:24.556Z,25.08
2019-05-02T14:17:53.997Z,28.27
2019-05-02T14:20:23.499Z,22.75
2019-05-02T14:22:52.921Z,21.52
2019-05-02T14:25:22.523Z,21.85
2019-05-02T14:27:55.453Z,20.60
2019-05-02T14:30:36.219Z,20.52
2019-05-02T14:32:58.256Z,23.97
2019-05-02T14:35:30.016Z,29.17
2019-05-02T14:38:09.305Z,28.27
2019-05-02T14:40:45.345Z,29.33
2019-05-02T14:43:17.723Z,29.23
2019-05-02T14:45:51.003Z,36.20
2019-05-02T14:48:23.616Z,36.10
2019-05-02T14:50:52.621Z,28.87
2019-05-02T14:53:25.325Z,29.60
2019-05-02T14:55:57.589Z,29.43
2019-05-02T14:58:25.681Z,29.97
2019-05-02T15:00:56.657Z,26.37
2019-05-02T15:03:28.453Z,27.77
2019-05-02T15:05:59.102Z,29.23
2019-05-02T15:08:28.270Z,29.00
2019-05-02T15:10:57.727Z,27.27
2019-05-02T15:13:27.194Z,30.13
2019-05-02T15:15:56.615Z,30.77
2019-05-02T15:18:25.902Z,49.60
2019-05-02T15:20:55.247Z,40.90
2019-05-02T15:23:24.770Z,33.53
2019-05-02T15:25:56.060Z,31.70
2019-05-02T15:28:25.347Z,33.70
2019-05-02T15:31:05.721Z,35.23
2019-05-02T15:33:38.919Z,35.07
2019-05-02T15:36:08.894Z,33.43
2019-05-02T15:38:45.560Z,33.57
2019-05-02T15:41:12.617Z,33.90
2019-05-02T15:43:44.276Z,33.67
2019-05-02T15:46:17.319Z,29.73
2019-05-02T15:48:42.799Z,28.37
2019-05-02T15:51:12.418Z,398.00
2019-05-02T15:54:04.477Z,32.80
2019-05-02T15:56:24.372Z,28.67
2019-05-02T15:58:58.081Z,26.97
2019-05-02T16:01:36.669Z,27.63
2019-05-02T16:04:09.146Z,29.63
2019-05-02T16:06:38.583Z,25.40
2019-05-02T16:09:08.488Z,22.93
2019-05-02T16:11:37.995Z,20.07
2019-05-02T16:14:07.384Z,18.80
2019-05-02T16:16:41.133Z,20.53
2019-05-02T16:19:07.840Z,17.93
2019-05-02T16:21:45.612Z,17.97
2019-05-02T16:24:22.974Z,16.80
2019-05-02T16:26:56.609Z,16.77
2019-05-02T16:29:28.313Z,16.13
2019-05-02T16:32:14.293Z,15.07
2019-05-02T16:34:54.841Z,15.63
2019-05-02T16:37:24.537Z,16.70
2019-05-02T16:39:54.128Z,17.90
2019-05-02T16:42:23.645Z,17.67
2019-05-02T16:44:54.840Z,18.63
2019-05-02T16:47:24.081Z,19.23
2019-05-02T16:49:56.396Z,20.30
2019-05-02T16:52:24.562Z,19.17
2019-05-02T16:54:54.053Z,22.63
2019-05-02T16:57:23.848Z,22.03
2019-05-02T17:00:01.002Z,22.57
2019-05-02T17:02:24.700Z,23.53
2019-05-02T17:04:54.584Z,20.93
2019-05-02T17:07:52.970Z,22.03
2019-05-02T17:10:29.220Z,22.03
2019-05-02T17:13:00.304Z,20.50
2019-05-02T17:15:35.450Z,20.23
2019-05-02T17:18:12.623Z,20.53
2019-05-02T17:20:37.174Z,19.83
2019-05-02T17:23:07.755Z,20.80
2019-05-02T17:25:37.192Z,19.30
2019-05-02T17:28:10.263Z,17.80
2019-05-02T17:30:38.828Z,18.63
2019-05-02T17:33:14.388Z,18.10
2019-05-02T17:35:41.668Z,55.17
2019-05-02T17:38:12.055Z,51.63
2019-05-02T17:40:42.236Z,52.03
2019-05-02T17:43:11.948Z,27.47
2019-05-02T17:45:41.389Z,18.40
2019-05-02T17:48:16.606Z,20.13
2019-05-02T17:51:06.655Z,18.27
2019-05-02T17:53:41.343Z,16.23
2019-05-02T17:56:07.160Z,16.47
2019-05-02T17:58:36.537Z,15.60
2019-05-02T18:01:10.187Z,15.57
2019-05-02T18:03:39.534Z,14.67
2019-05-02T18:06:13.213Z,13.10
2019-05-02T18:08:41.727Z,13.73
2019-05-02T18:11:12.700Z,25.63
2019-05-02T18:13:42.402Z,12.73
2019-05-02T18:16:15.153Z,12.70
2019-05-02T18:18:46.639Z,11.87
2019-05-02T18:21:17.271Z,13.17
2019-05-02T18:23:45.183Z,11.33
2019-05-02T18:26:14.592Z,10.57
2019-05-02T18:28:48.936Z,10.43
2019-05-02T18:31:15.315Z,11.07
2019-05-02T18:33:44.745Z,10.63
2019-05-02T18:36:17.293Z,11.17
2019-05-02T18:38:45.310Z,12.40
2019-05-02T18:41:16.270Z,12.90
2019-05-02T18:43:46.362Z,10.70
2019-05-02T18:46:16.015Z,11.63
2019-05-02T18:48:48.945Z,13.17
2019-05-02T18:51:19.001Z,15.00
2019-05-02T18:53:48.502Z,12.10
2019-05-02T18:56:18.132Z,12.70
2019-05-02T18:58:47.937Z,9.87
2019-05-02T19:01:19.436Z,10.53
2019-05-02T19:03:52.487Z,8.33
2019-05-02T19:06:21.887Z,66.47
2019-05-02T19:08:53.057Z,30.80
2019-05-02T19:11:26.787Z,8.83
2019-05-02T19:13:54.095Z,7.63
2019-05-02T19:16:27.245Z,7.97
2019-05-02T19:18:57.437Z,6.13
2019-05-02T19:21:31.256Z,7.43
2019-05-02T19:23:57.817Z,6.97
2019-05-02T19:26:29.989Z,5.80
2019-05-02T19:29:08.316Z,6.17
2019-05-02T19:31:46.144Z,6.33
2019-05-02T19:34:16.894Z,6.53
2019-05-02T19:36:46.503Z,8.07
2019-05-02T19:39:17.240Z,7.97
2019-05-02T19:41:46.612Z,6.13
2019-05-02T19:44:21.365Z,8.90
2019-05-02T19:46:47.094Z,7.20
2019-05-02T19:49:16.491Z,7.20
2019-05-02T19:51:50.557Z,7.07
2019-05-02T19:54:17.977Z,6.93
2019-05-02T19:56:47.764Z,6.13
2019-05-02T19:59:24.626Z,6.50
2019-05-02T20:01:49.566Z,6.43
2019-05-02T20:04:19.518Z,7.17
2019-05-02T20:06:49.705Z,6.67
2019-05-02T20:09:19.473Z,6.53
2019-05-02T20:11:48.891Z,6.60
2019-05-02T20:14:18.542Z,6.80
2019-05-02T20:16:52.810Z,7.33
2019-05-02T20:19:26.806Z,8.30
2019-05-02T20:22:06.606Z,6.83
2019-05-02T20:25:08.559Z,8.53
2019-05-02T20:27:37.980Z,8.43
2019-05-02T20:30:12.011Z,10.07
2019-05-02T20:32:42.852Z,9.60
2019-05-02T20:35:13.092Z,10.47
2019-05-02T20:37:42.510Z,9.90
2019-05-02T20:40:27.510Z,21.07
2019-05-02T20:42:56.855Z,10.43
2019-05-02T20:45:26.627Z,11.00
2019-05-02T20:47:56.464Z,9.57
2019-05-02T20:50:26.819Z,10.70
2019-05-02T20:52:56.479Z,11.13
2019-05-02T20:55:27.230Z,10.60
2019-05-02T20:57:57.182Z,12.37
2019-05-02T21:00:29.406Z,13.57
2019-05-02T21:02:59.119Z,12.73
2019-05-02T21:05:35.307Z,13.87
2019-05-02T21:08:42.571Z,13.67
2019-05-02T21:11:12.538Z,13.83
2019-05-02T21:13:42.151Z,13.67
2019-05-02T21:16:12.534Z,14.70
2019-05-02T21:18:42.631Z,15.13
2019-05-02T21:21:12.688Z,16.73
2019-05-02T21:23:47.318Z,17.33
2019-05-02T21:26:13.933Z,17.97
2019-05-02T21:28:46.096Z,18.17
2019-05-02T21:31:14.869Z,18.83
2019-05-02T21:33:44.458Z,17.40
2019-05-02T21:36:13.865Z,18.33
2019-05-02T21:38:43.246Z,18.87
2019-05-02T21:41:12.811Z,18.73
2019-05-02T21:43:42.694Z,19.00
2019-05-02T21:46:12.702Z,20.47
2019-05-02T21:48:42.651Z,21.63
2019-05-02T21:51:38.609Z,20.43
2019-05-02T21:54:29.958Z,22.33
2019-05-02T21:57:08.477Z,20.83
2019-05-02T21:59:38.379Z,18.73
2019-05-02T22:02:11.895Z,19.57
2019-05-02T22:04:42.366Z,19.87
2019-05-02T22:07:12.194Z,19.60
2019-05-02T22:09:41.759Z,42.63
2019-05-02T22:12:12.008Z,85.60
2019-05-02T22:14:42.148Z,17.97
2019-05-02T22:17:12.720Z,20.90
2019-05-02T22:19:42.094Z,17.80
2019-05-02T22:22:12.226Z,18.50
2019-05-02T22:24:42.132Z,18.40
2019-05-02T22:27:12.369Z,18.30
2019-05-02T22:29:43.035Z,19.17
2019-05-02T22:32:12.433Z,19.17
2019-05-02T22:34:42.607Z,19.07
2019-05-02T22:37:14.158Z,19.97
2019-05-02T22:39:48.972Z,17.57
2019-05-02T22:42:18.158Z,17.13
2019-05-02T22:44:47.325Z,19.60
2019-05-02T22:47:16.534Z,19.77
2019-05-02T22:49:45.724Z,20.17
2019-05-02T22:52:14.877Z,20.63
2019-05-02T22:54:44.037Z,16.20
2019-05-02T22:57:14.260Z,20.40
2019-05-02T22:59:43.666Z,18.77
2019-05-02T23:02:13.124Z,19.67
2019-05-02T23:04:42.309Z,20.87
2019-05-02T23:07:12.670Z,17.97
2019-05-02T23:09:43.666Z,21.40
2019-05-02T23:12:13.243Z,22.10
2019-05-02T23:14:42.451Z,19.03
2019-05-02T23:17:12.725Z,17.33
2019-05-02T23:19:42.435Z,20.70
2019-05-02T23:22:12.724Z,20.80
2019-05-02T23:24:56.134Z,20.70
2019-05-02T23:27:38.168Z,18.97
2019-05-02T23:30:11.549Z,23.30
2019-05-02T23:32:42.373Z,23.20
2019-05-02T23:35:11.819Z,18.77
2019-05-02T23:37:42.263Z,19.87
2019-05-02T23:40:12.474Z,19.40
2019-05-02T23:42:41.859Z,17.97
2019-05-02T23:45:12.100Z,20.27
2019-05-02T23:47:42.193Z,18.23
2019-05-02T23:50:12.113Z,16.63
2019-05-02T23:52:41.560Z,17.20
2019-05-02T23:55:12.188Z,13.47
2019-05-02T23:57:42.142Z,11.30
